sensor_id;sensor_type;location;lat;lon;timestamp;P1;durP1;ratioP1;P2;durP2;ratioP2
34872;SDS011;21084;51.098;14.506;2022-11-21T00:02:15;96.90;;;34.40;;
34872;SDS011;21084;51.098;14.506;2022-11-21T00:04:53;104.60;;;34.85;;
34872;SDS011;21084;51.098;14.506;2022-11-21T00:07:32;98.13;;;34.77;;
34872;SDS011;21084;51.098;14.506;2022-11-21T00:13:06;95.00;;;33.55;;
34872;SDS011;21084;51.098;14.506;2022-11-21T00:19:08;92.45;;;35.13;;
34872;SDS011;21084;51.098;14.506;2022-11-21T00:21:47;98.00;;;34.35;;
34872;SDS011;21084;51.098;14.506;2022-11-21T00:24:30;95.35;;;35.45;;
34872;SDS011;21084;51.098;14.506;2022-11-21T00:27:21;92.22;;;33.78;;
34872;SDS011;21084;51.098;14.506;2022-11-21T00:30:19;96.65;;;34.28;;
34872;SDS011;21084;51.098;14.506;2022-11-21T00:33:16;98.47;;;33.47;;
34872;SDS011;21084;51.098;14.506;2022-11-21T00:36:16;92.07;;;33.38;;
34872;SDS011;21084;51.098;14.506;2022-11-21T00:41:42;91.28;;;32.80;;
34872;SDS011;21084;51.098;14.506;2022-11-21T00:44:24;100.25;;;34.95;;
34872;SDS011;21084;51.098;14.506;2022-11-21T00:47:32;93.85;;;33.95;;
34872;SDS011;21084;51.098;14.506;2022-11-21T00:56:07;90.05;;;29.80;;
34872;SDS011;21084;51.098;14.506;2022-11-21T00:59:08;90.05;;;33.38;;
34872;SDS011;21084;51.098;14.506;2022-11-21T01:02:04;88.47;;;31.55;;
34872;SDS011;21084;51.098;14.506;2022-11-21T01:04:44;88.22;;;32.55;;
34872;SDS011;21084;51.098;14.506;2022-11-21T01:07:42;82.40;;;30.70;;
34872;SDS011;21084;51.098;14.506;2022-11-21T01:11:34;88.15;;;30.98;;
34872;SDS011;21084;51.098;14.506;2022-11-21T01:14:16;82.93;;;30.65;;
34872;SDS011;21084;51.098;14.506;2022-11-21T01:17:41;77.43;;;29.02;;
34872;SDS011;21084;51.098;14.506;2022-11-21T01:20:52;84.45;;;30.42;;
34872;SDS011;21084;51.098;14.506;2022-11-21T01:23:58;80.28;;;29.42;;
34872;SDS011;21084;51.098;14.506;2022-11-21T01:30:32;80.78;;;30.25;;
34872;SDS011;21084;51.098;14.506;2022-11-21T01:33:27;72.75;;;27.92;;
34872;SDS011;21084;51.098;14.506;2022-11-21T01:36:22;80.30;;;30.63;;
34872;SDS011;21084;51.098;14.506;2022-11-21T01:39:26;79.90;;;28.27;;
34872;SDS011;21084;51.098;14.506;2022-11-21T01:56:19;75.22;;;27.27;;
34872;SDS011;21084;51.098;14.506;2022-11-21T01:59:46;70.32;;;27.42;;
34872;SDS011;21084;51.098;14.506;2022-11-21T02:18:48;82.40;;;29.75;;
34872;SDS011;21084;51.098;14.506;2022-11-21T02:21:44;73.28;;;28.88;;
34872;SDS011;21084;51.098;14.506;2022-11-21T02:24:37;74.03;;;28.00;;
34872;SDS011;21084;51.098;14.506;2022-11-21T02:27:56;82.95;;;29.50;;
34872;SDS011;21084;51.098;14.506;2022-11-21T02:31:11;74.30;;;27.85;;
34872;SDS011;21084;51.098;14.506;2022-11-21T02:37:53;73.97;;;29.10;;
34872;SDS011;21084;51.098;14.506;2022-11-21T02:41:05;65.53;;;26.75;;
34872;SDS011;21084;51.098;14.506;2022-11-21T02:54:30;67.80;;;27.58;;
34872;SDS011;21084;51.098;14.506;2022-11-21T02:57:36;64.75;;;25.98;;
34872;SDS011;21084;51.098;14.506;2022-11-21T03:00:13;69.85;;;26.33;;
34872;SDS011;21084;51.098;14.506;2022-11-21T03:02:53;62.92;;;24.85;;
34872;SDS011;21084;51.098;14.506;2022-11-21T03:09:31;60.30;;;25.33;;
34872;SDS011;21084;51.098;14.506;2022-11-21T03:19:43;55.55;;;23.08;;
34872;SDS011;21084;51.098;14.506;2022-11-21T03:23:06;52.40;;;23.75;;
34872;SDS011;21084;51.098;14.506;2022-11-21T03:25:57;54.70;;;22.77;;
34872;SDS011;21084;51.098;14.506;2022-11-21T03:28:42;50.13;;;21.23;;
34872;SDS011;21084;51.098;14.506;2022-11-21T03:31:20;53.33;;;23.55;;
34872;SDS011;21084;51.098;14.506;2022-11-21T03:33:53;51.25;;;22.08;;
34872;SDS011;21084;51.098;14.506;2022-11-21T03:36:21;48.00;;;21.23;;
34872;SDS011;21084;51.098;14.506;2022-11-21T03:39:01;50.47;;;23.58;;
34872;SDS011;21084;51.098;14.506;2022-11-21T03:41:53;46.25;;;21.05;;
34872;SDS011;21084;51.098;14.506;2022-11-21T03:44:39;50.00;;;21.73;;
34872;SDS011;21084;51.098;14.506;2022-11-21T03:52:45;49.05;;;21.77;;
34872;SDS011;21084;51.098;14.506;2022-11-21T03:56:31;49.60;;;21.17;;
34872;SDS011;21084;51.098;14.506;2022-11-21T03:59:13;50.15;;;21.63;;
34872;SDS011;21084;51.098;14.506;2022-11-21T04:01:45;52.70;;;21.98;;
34872;SDS011;21084;51.098;14.506;2022-11-21T04:04:24;45.63;;;21.05;;
34872;SDS011;21084;51.098;14.506;2022-11-21T04:06:55;46.65;;;21.02;;
34872;SDS011;21084;51.098;14.506;2022-11-21T04:09:25;44.95;;;20.73;;
34872;SDS011;21084;51.098;14.506;2022-11-21T04:14:32;46.38;;;20.30;;
34872;SDS011;21084;51.098;14.506;2022-11-21T04:17:06;40.88;;;20.13;;
34872;SDS011;21084;51.098;14.506;2022-11-21T04:19:42;46.78;;;21.50;;
34872;SDS011;21084;51.098;14.506;2022-11-21T04:22:22;42.22;;;19.10;;
34872;SDS011;21084;51.098;14.506;2022-11-21T04:24:51;37.70;;;19.27;;
34872;SDS011;21084;51.098;14.506;2022-11-21T04:27:23;42.85;;;20.42;;
34872;SDS011;21084;51.098;14.506;2022-11-21T04:29:54;45.72;;;21.20;;
34872;SDS011;21084;51.098;14.506;2022-11-21T04:32:26;45.38;;;20.08;;
34872;SDS011;21084;51.098;14.506;2022-11-21T04:34:56;43.35;;;19.38;;
34872;SDS011;21084;51.098;14.506;2022-11-21T04:40:00;38.25;;;19.15;;
34872;SDS011;21084;51.098;14.506;2022-11-21T04:43:14;38.38;;;19.30;;
34872;SDS011;21084;51.098;14.506;2022-11-21T04:46:14;40.22;;;17.95;;
34872;SDS011;21084;51.098;14.506;2022-11-21T04:49:12;37.53;;;18.17;;
34872;SDS011;21084;51.098;14.506;2022-11-21T04:52:23;34.67;;;17.23;;
34872;SDS011;21084;51.098;14.506;2022-11-21T04:55:07;37.50;;;19.05;;
34872;SDS011;21084;51.098;14.506;2022-11-21T04:57:42;38.90;;;19.00;;
34872;SDS011;21084;51.098;14.506;2022-11-21T05:00:26;37.65;;;19.15;;
34872;SDS011;21084;51.098;14.506;2022-11-21T05:03:11;38.63;;;19.77;;
34872;SDS011;21084;51.098;14.506;2022-11-21T05:05:46;35.38;;;17.67;;
34872;SDS011;21084;51.098;14.506;2022-11-21T05:08:26;37.25;;;17.65;;
34872;SDS011;21084;51.098;14.506;2022-11-21T05:11:05;36.20;;;17.73;;
34872;SDS011;21084;51.098;14.506;2022-11-21T05:14:06;39.78;;;17.83;;
34872;SDS011;21084;51.098;14.506;2022-11-21T05:16:47;35.15;;;17.77;;
34872;SDS011;21084;51.098;14.506;2022-11-21T05:19:18;39.45;;;18.45;;
34872;SDS011;21084;51.098;14.506;2022-11-21T05:21:55;37.65;;;18.45;;
34872;SDS011;21084;51.098;14.506;2022-11-21T05:24:50;37.05;;;17.92;;
34872;SDS011;21084;51.098;14.506;2022-11-21T05:28:05;37.35;;;17.90;;
34872;SDS011;21084;51.098;14.506;2022-11-21T05:30:54;38.35;;;18.02;;
34872;SDS011;21084;51.098;14.506;2022-11-21T05:34:06;40.03;;;18.38;;
34872;SDS011;21084;51.098;14.506;2022-11-21T05:41:27;39.67;;;18.38;;
34872;SDS011;21084;51.098;14.506;2022-11-21T05:44:59;35.40;;;18.42;;
34872;SDS011;21084;51.098;14.506;2022-11-21T05:48:48;37.13;;;17.42;;
34872;SDS011;21084;51.098;14.506;2022-11-21T07:06:39;44.67;;;20.95;;
34872;SDS011;21084;51.098;14.506;2022-11-21T07:17:42;52.97;;;24.70;;
34872;SDS011;21084;51.098;14.506;2022-11-21T07:21:13;48.72;;;23.05;;
34872;SDS011;21084;51.098;14.506;2022-11-21T07:27:40;49.00;;;23.80;;
34872;SDS011;21084;51.098;14.506;2022-11-21T07:30:20;48.90;;;24.00;;
34872;SDS011;21084;51.098;14.506;2022-11-21T07:33:11;57.25;;;28.63;;
34872;SDS011;21084;51.098;14.506;2022-11-21T07:35:46;70.15;;;32.95;;
34872;SDS011;21084;51.098;14.506;2022-11-21T07:38:15;59.55;;;27.90;;
34872;SDS011;21084;51.098;14.506;2022-11-21T07:40:48;52.65;;;25.48;;
34872;SDS011;21084;51.098;14.506;2022-11-21T07:43:22;55.38;;;25.85;;
34872;SDS011;21084;51.098;14.506;2022-11-21T07:48:19;59.38;;;26.10;;
34872;SDS011;21084;51.098;14.506;2022-11-21T07:50:48;59.85;;;27.50;;
34872;SDS011;21084;51.098;14.506;2022-11-21T07:53:38;58.10;;;27.05;;
34872;SDS011;21084;51.098;14.506;2022-11-21T07:56:36;64.63;;;29.40;;
34872;SDS011;21084;51.098;14.506;2022-11-21T07:59:11;59.83;;;26.40;;
34872;SDS011;21084;51.098;14.506;2022-11-21T08:01:49;64.43;;;28.08;;
34872;SDS011;21084;51.098;14.506;2022-11-21T08:04:25;81.88;;;35.25;;
34872;SDS011;21084;51.098;14.506;2022-11-21T08:07:26;63.35;;;30.35;;
34872;SDS011;21084;51.098;14.506;2022-11-21T08:10:14;68.65;;;28.00;;
34872;SDS011;21084;51.098;14.506;2022-11-21T08:12:58;58.08;;;26.80;;
34872;SDS011;21084;51.098;14.506;2022-11-21T08:15:42;60.60;;;25.58;;
34872;SDS011;21084;51.098;14.506;2022-11-21T08:19:28;57.20;;;24.20;;
34872;SDS011;21084;51.098;14.506;2022-11-21T08:26:32;46.38;;;20.63;;
34872;SDS011;21084;51.098;14.506;2022-11-21T08:33:28;21.20;;;10.45;;
34872;SDS011;21084;51.098;14.506;2022-11-21T08:36:29;18.25;;;9.88;;
34872;SDS011;21084;51.098;14.506;2022-11-21T08:39:22;22.23;;;10.07;;
34872;SDS011;21084;51.098;14.506;2022-11-21T08:41:56;17.17;;;10.00;;
34872;SDS011;21084;51.098;14.506;2022-11-21T08:44:37;17.35;;;9.73;;
34872;SDS011;21084;51.098;14.506;2022-11-21T08:47:14;16.10;;;9.55;;
34872;SDS011;21084;51.098;14.506;2022-11-21T08:50:25;20.70;;;10.10;;
34872;SDS011;21084;51.098;14.506;2022-11-21T10:51:24;52.70;;;21.52;;
34872;SDS011;21084;51.098;14.506;2022-11-21T11:27:49;46.47;;;19.30;;
34872;SDS011;21084;51.098;14.506;2022-11-21T11:30:47;47.58;;;18.67;;
34872;SDS011;21084;51.098;14.506;2022-11-21T11:34:40;48.60;;;20.20;;
34872;SDS011;21084;51.098;14.506;2022-11-21T11:38:30;43.60;;;18.13;;
34872;SDS011;21084;51.098;14.506;2022-11-21T11:42:08;40.05;;;16.55;;
34872;SDS011;21084;51.098;14.506;2022-11-21T12:14:00;60.42;;;23.85;;
34872;SDS011;21084;51.098;14.506;2022-11-21T12:17:14;62.22;;;25.20;;
34872;SDS011;21084;51.098;14.506;2022-11-21T12:20:43;52.55;;;21.83;;
34872;SDS011;21084;51.098;14.506;2022-11-21T12:28:21;50.40;;;22.10;;
34872;SDS011;21084;51.098;14.506;2022-11-21T14:05:48;41.55;;;19.25;;
34872;SDS011;21084;51.098;14.506;2022-11-21T14:48:21;31.42;;;14.02;;
34872;SDS011;21084;51.098;14.506;2022-11-21T14:51:13;36.47;;;15.95;;
34872;SDS011;21084;51.098;14.506;2022-11-21T14:53:49;34.17;;;15.38;;
34872;SDS011;21084;51.098;14.506;2022-11-21T14:56:27;32.22;;;15.43;;
34872;SDS011;21084;51.098;14.506;2022-11-21T14:59:03;30.75;;;15.38;;
34872;SDS011;21084;51.098;14.506;2022-11-21T15:01:54;37.75;;;17.23;;
34872;SDS011;21084;51.098;14.506;2022-11-21T15:04:35;38.08;;;17.60;;
34872;SDS011;21084;51.098;14.506;2022-11-21T15:11:49;41.47;;;17.30;;
34872;SDS011;21084;51.098;14.506;2022-11-21T15:15:45;34.00;;;16.33;;
34872;SDS011;21084;51.098;14.506;2022-11-21T15:18:55;32.50;;;16.42;;
34872;SDS011;21084;51.098;14.506;2022-11-21T15:21:45;47.78;;;18.85;;
34872;SDS011;21084;51.098;14.506;2022-11-21T15:24:42;82.00;;;28.90;;
34872;SDS011;21084;51.098;14.506;2022-11-21T15:27:30;69.57;;;25.40;;
34872;SDS011;21084;51.098;14.506;2022-11-21T15:30:31;91.82;;;32.83;;
34872;SDS011;21084;51.098;14.506;2022-11-21T15:33:02;99.38;;;36.63;;
34872;SDS011;21084;51.098;14.506;2022-11-21T15:35:49;138.40;;;52.80;;
34872;SDS011;21084;51.098;14.506;2022-11-21T15:38:28;121.70;;;45.65;;
34872;SDS011;21084;51.098;14.506;2022-11-21T15:41:22;105.85;;;40.72;;
34872;SDS011;21084;51.098;14.506;2022-11-21T15:46:49;65.93;;;25.35;;
34872;SDS011;21084;51.098;14.506;2022-11-21T15:49:19;49.83;;;20.75;;
34872;SDS011;21084;51.098;14.506;2022-11-21T15:52:00;51.90;;;23.15;;
34872;SDS011;21084;51.098;14.506;2022-11-21T15:54:35;61.05;;;25.80;;
34872;SDS011;21084;51.098;14.506;2022-11-21T15:57:05;53.33;;;23.50;;
34872;SDS011;21084;51.098;14.506;2022-11-21T15:59:41;94.60;;;39.85;;
34872;SDS011;21084;51.098;14.506;2022-11-21T16:02:11;86.90;;;36.78;;
34872;SDS011;21084;51.098;14.506;2022-11-21T16:04:40;74.22;;;32.58;;
34872;SDS011;21084;51.098;14.506;2022-11-21T16:07:09;68.67;;;29.93;;
34872;SDS011;21084;51.098;14.506;2022-11-21T16:10:30;63.58;;;28.35;;
34872;SDS011;21084;51.098;14.506;2022-11-21T16:13:07;62.80;;;27.00;;
34872;SDS011;21084;51.098;14.506;2022-11-21T16:16:09;58.55;;;27.33;;
34872;SDS011;21084;51.098;14.506;2022-11-21T16:18:57;66.80;;;29.15;;
34872;SDS011;21084;51.098;14.506;2022-11-21T16:21:44;75.13;;;32.13;;
34872;SDS011;21084;51.098;14.506;2022-11-21T16:35:09;68.10;;;31.80;;
34872;SDS011;21084;51.098;14.506;2022-11-21T16:37:38;62.33;;;27.67;;
34872;SDS011;21084;51.098;14.506;2022-11-21T16:40:13;84.85;;;34.97;;
34872;SDS011;21084;51.098;14.506;2022-11-21T16:42:45;74.75;;;34.75;;
34872;SDS011;21084;51.098;14.506;2022-11-21T16:45:20;80.70;;;36.58;;
34872;SDS011;21084;51.098;14.506;2022-11-21T16:47:50;68.78;;;33.03;;
34872;SDS011;21084;51.098;14.506;2022-11-21T16:50:20;62.60;;;29.63;;
34872;SDS011;21084;51.098;14.506;2022-11-21T16:52:48;58.90;;;27.98;;
34872;SDS011;21084;51.098;14.506;2022-11-21T16:55:17;67.30;;;31.73;;
34872;SDS011;21084;51.098;14.506;2022-11-21T16:57:45;67.30;;;31.75;;
34872;SDS011;21084;51.098;14.506;2022-11-21T17:00:15;68.00;;;35.05;;
34872;SDS011;21084;51.098;14.506;2022-11-21T17:02:44;69.60;;;33.25;;
34872;SDS011;21084;51.098;14.506;2022-11-21T17:05:12;63.63;;;31.85;;
34872;SDS011;21084;51.098;14.506;2022-11-21T17:07:42;61.20;;;30.52;;
34872;SDS011;21084;51.098;14.506;2022-11-21T17:10:10;61.10;;;29.58;;
34872;SDS011;21084;51.098;14.506;2022-11-21T17:12:40;62.63;;;29.40;;
34872;SDS011;21084;51.098;14.506;2022-11-21T17:15:11;55.28;;;26.63;;
34872;SDS011;21084;51.098;14.506;2022-11-21T17:18:04;53.42;;;25.65;;
34872;SDS011;21084;51.098;14.506;2022-11-21T17:20:34;53.78;;;25.42;;
34872;SDS011;21084;51.098;14.506;2022-11-21T17:23:04;53.85;;;24.83;;
34872;SDS011;21084;51.098;14.506;2022-11-21T17:25:34;54.83;;;26.33;;
34872;SDS011;21084;51.098;14.506;2022-11-21T17:28:04;59.45;;;26.23;;
34872;SDS011;21084;51.098;14.506;2022-11-21T17:30:33;58.35;;;25.92;;
34872;SDS011;21084;51.098;14.506;2022-11-21T17:33:10;49.75;;;23.50;;
34872;SDS011;21084;51.098;14.506;2022-11-21T17:35:40;45.75;;;21.88;;
34872;SDS011;21084;51.098;14.506;2022-11-21T17:38:13;45.70;;;21.88;;
34872;SDS011;21084;51.098;14.506;2022-11-21T17:40:46;47.10;;;19.80;;
34872;SDS011;21084;51.098;14.506;2022-11-21T17:46:37;45.13;;;20.00;;
34872;SDS011;21084;51.098;14.506;2022-11-21T17:49:08;43.28;;;20.85;;
34872;SDS011;21084;51.098;14.506;2022-11-21T17:51:39;60.65;;;30.23;;
34872;SDS011;21084;51.098;14.506;2022-11-21T17:54:27;76.25;;;36.67;;
34872;SDS011;21084;51.098;14.506;2022-11-21T17:57:05;54.13;;;25.70;;
34872;SDS011;21084;51.098;14.506;2022-11-21T17:59:36;45.47;;;24.17;;
34872;SDS011;21084;51.098;14.506;2022-11-21T18:04:41;48.60;;;22.23;;
34872;SDS011;21084;51.098;14.506;2022-11-21T18:07:13;38.58;;;20.80;;
34872;SDS011;21084;51.098;14.506;2022-11-21T18:09:49;49.83;;;23.85;;
34872;SDS011;21084;51.098;14.506;2022-11-21T18:12:43;45.85;;;22.67;;
34872;SDS011;21084;51.098;14.506;2022-11-21T18:15:21;49.67;;;23.92;;
34872;SDS011;21084;51.098;14.506;2022-11-21T18:17:51;47.17;;;22.23;;
34872;SDS011;21084;51.098;14.506;2022-11-21T18:20:24;46.80;;;20.90;;
34872;SDS011;21084;51.098;14.506;2022-11-21T18:25:26;46.92;;;21.15;;
34872;SDS011;21084;51.098;14.506;2022-11-21T18:30:23;49.40;;;22.15;;
34872;SDS011;21084;51.098;14.506;2022-11-21T18:32:53;48.67;;;22.95;;
34872;SDS011;21084;51.098;14.506;2022-11-21T18:35:22;48.58;;;23.20;;
34872;SDS011;21084;51.098;14.506;2022-11-21T18:37:53;54.97;;;27.65;;
34872;SDS011;21084;51.098;14.506;2022-11-21T18:40:23;54.88;;;26.63;;
34872;SDS011;21084;51.098;14.506;2022-11-21T18:42:59;53.97;;;24.88;;
34872;SDS011;21084;51.098;14.506;2022-11-21T18:45:30;49.67;;;23.40;;
34872;SDS011;21084;51.098;14.506;2022-11-21T18:47:58;56.27;;;27.83;;
34872;SDS011;21084;51.098;14.506;2022-11-21T18:50:30;52.75;;;25.25;;
34872;SDS011;21084;51.098;14.506;2022-11-21T18:52:59;48.10;;;25.05;;
34872;SDS011;21084;51.098;14.506;2022-11-21T18:55:31;50.80;;;23.90;;
34872;SDS011;21084;51.098;14.506;2022-11-21T18:58:01;49.70;;;24.10;;
34872;SDS011;21084;51.098;14.506;2022-11-21T19:00:33;50.83;;;24.17;;
34872;SDS011;21084;51.098;14.506;2022-11-21T19:03:16;47.28;;;23.23;;
34872;SDS011;21084;51.098;14.506;2022-11-21T19:05:46;55.03;;;24.90;;
34872;SDS011;21084;51.098;14.506;2022-11-21T19:08:19;50.00;;;24.02;;
34872;SDS011;21084;51.098;14.506;2022-11-21T19:11:18;51.72;;;25.08;;
34872;SDS011;21084;51.098;14.506;2022-11-21T19:14:00;50.83;;;24.50;;
34872;SDS011;21084;51.098;14.506;2022-11-21T19:16:30;51.88;;;25.55;;
34872;SDS011;21084;51.098;14.506;2022-11-21T19:19:06;50.67;;;24.50;;
34872;SDS011;21084;51.098;14.506;2022-11-21T19:21:57;50.97;;;24.80;;
34872;SDS011;21084;51.098;14.506;2022-11-21T19:24:29;44.95;;;23.38;;
34872;SDS011;21084;51.098;14.506;2022-11-21T19:27:10;51.83;;;25.05;;
34872;SDS011;21084;51.098;14.506;2022-11-21T19:29:41;55.15;;;26.98;;
34872;SDS011;21084;51.098;14.506;2022-11-21T19:32:12;58.03;;;28.70;;
34872;SDS011;21084;51.098;14.506;2022-11-21T19:34:41;60.60;;;28.75;;
34872;SDS011;21084;51.098;14.506;2022-11-21T19:37:09;59.78;;;27.58;;
34872;SDS011;21084;51.098;14.506;2022-11-21T19:39:38;49.22;;;24.40;;
34872;SDS011;21084;51.098;14.506;2022-11-21T19:42:07;45.70;;;23.10;;
34872;SDS011;21084;51.098;14.506;2022-11-21T19:47:04;50.58;;;24.33;;
34872;SDS011;21084;51.098;14.506;2022-11-21T19:49:34;57.03;;;26.63;;
34872;SDS011;21084;51.098;14.506;2022-11-21T19:52:04;51.50;;;25.17;;
34872;SDS011;21084;51.098;14.506;2022-11-21T19:54:32;57.70;;;27.00;;
34872;SDS011;21084;51.098;14.506;2022-11-21T19:57:01;52.13;;;23.92;;
34872;SDS011;21084;51.098;14.506;2022-11-21T19:59:33;174.90;;;65.40;;
34872;SDS011;21084;51.098;14.506;2022-11-21T20:04:30;64.93;;;25.87;;
34872;SDS011;21084;51.098;14.506;2022-11-21T20:06:59;108.95;;;41.95;;
34872;SDS011;21084;51.098;14.506;2022-11-21T20:09:33;105.10;;;48.22;;
34872;SDS011;21084;51.098;14.506;2022-11-21T20:12:01;82.00;;;39.40;;
34872;SDS011;21084;51.098;14.506;2022-11-21T20:14:30;63.63;;;31.07;;
34872;SDS011;21084;51.098;14.506;2022-11-21T20:17:00;65.95;;;31.35;;
34872;SDS011;21084;51.098;14.506;2022-11-21T20:21:57;84.43;;;36.45;;
34872;SDS011;21084;51.098;14.506;2022-11-21T20:24:25;81.03;;;34.85;;
34872;SDS011;21084;51.098;14.506;2022-11-21T20:26:54;74.90;;;34.42;;
34872;SDS011;21084;51.098;14.506;2022-11-21T20:29:24;71.72;;;32.78;;
34872;SDS011;21084;51.098;14.506;2022-11-21T20:31:52;62.20;;;30.63;;
34872;SDS011;21084;51.098;14.506;2022-11-21T20:34:25;68.03;;;30.85;;
